Time;durP1;ratioP1;P1;durP2;ratioP2;P2;SDS_P1;SDS_P2;PMS_P1;PMS_P2;Temp;Humidity;BMP_temperature;BMP_pressure;BME280_temperature;BME280_humidity;BME280_pressure;Samples;Min_cycle;Max_cycle;Signal;HPM_P1;HPM_P2
2021/04/06 00:00:09;;;;;;;5.80;3.90;;;1.40;99.90;;;;;;4937555;29;20574;-79
2021/04/06 00:02:40;;;;;;;8.07;3.40;;;1.40;99.90;;;;;;4937415;29;20583;-79
2021/04/06 00:05:10;;;;;;;6.53;3.30;;;1.50;99.90;;;;;;4936224;29;20193;-80
2021/04/06 00:07:38;;;;;;;9.80;5.37;;;1.50;99.90;;;;;;4937254;29;20497;-79
2021/04/06 00:10:11;;;;;;;10.95;4.65;;;1.50;99.90;;;;;;4937237;29;20460;-79
2021/04/06 00:12:39;;;;;;;5.40;2.67;;;1.60;99.90;;;;;;4937314;29;20208;-79
2021/04/06 00:15:08;;;;;;;6.70;5.00;;;1.60;99.90;;;;;;4937348;29;20467;-80
2021/04/06 00:17:35;;;;;;;6.73;4.60;;;1.60;99.90;;;;;;4937207;29;20460;-79
2021/04/06 00:20:04;;;;;;;7.93;6.80;;;1.70;99.90;;;;;;4935861;29;20826;-79
2021/04/06 00:22:34;;;;;;;7.37;3.97;;;1.80;99.90;;;;;;4937019;29;20540;-79
2021/04/06 00:25:02;;;;;;;6.40;4.00;;;1.90;99.90;;;;;;4937014;29;20929;-79
2021/04/06 00:27:33;;;;;;;6.67;5.23;;;1.80;99.90;;;;;;4937062;29;20488;-80
2021/04/06 00:30:07;;;;;;;5.85;4.15;;;1.80;99.90;;;;;;4936966;29;20512;-79
2021/04/06 00:32:34;;;;;;;6.67;4.67;;;1.80;99.90;;;;;;4937011;29;20284;-79
2021/04/06 00:35:02;;;;;;;7.10;4.17;;;1.80;99.90;;;;;;4935538;29;20491;-80
2021/04/06 00:37:30;;;;;;;6.10;3.20;;;1.90;99.90;;;;;;4936539;29;20549;-81
2021/04/06 00:39:59;;;;;;;9.30;3.83;;;1.90;99.90;;;;;;4936728;29;20493;-81
2021/04/06 00:42:30;;;;;;;6.67;4.20;;;2.00;99.90;;;;;;4936691;29;20456;-81
2021/04/06 00:44:58;;;;;;;7.20;3.17;;;2.10;99.90;;;;;;4936742;29;20883;-81
2021/04/06 00:47:26;;;;;;;7.67;4.80;;;2.10;99.90;;;;;;4936542;29;20445;-81
2021/04/06 00:49:55;;;;;;;9.23;7.30;;;2.00;99.90;;;;;;4935496;29;20547;-80
2021/04/06 00:52:22;;;;;;;15.88;9.60;;;2.10;99.90;;;;;;4936626;29;20512;-81
2021/04/06 00:54:52;;;;;;;9.60;4.63;;;2.10;99.90;;;;;;4936494;29;20631;-81
2021/04/06 00:57:19;;;;;;;5.80;3.67;;;2.20;99.90;;;;;;4936074;29;20496;-82
2021/04/06 01:00:12;;;;;;;6.30;3.53;;;2.20;99.90;;;;;;4936494;29;20464;-82
2021/04/06 01:02:39;;;;;;;12.07;6.60;;;2.20;99.90;;;;;;4939669;29;20850;-82
2021/04/06 01:05:06;;;;;;;6.00;4.50;;;2.10;99.90;;;;;;4935235;29;21254;-82
2021/04/06 01:07:34;;;;;;;6.10;4.67;;;2.20;99.90;;;;;;4936261;29;20548;-82
2021/04/06 01:10:01;;;;;;;9.13;4.40;;;2.10;99.90;;;;;;4936469;29;20457;-81
2021/04/06 01:12:29;;;;;;;5.60;2.70;;;2.10;99.90;;;;;;4936239;29;20531;-82
2021/04/06 01:14:56;;;;;;;7.40;3.27;;;2.10;99.90;;;;;;4936208;29;20453;-82
2021/04/06 01:17:25;;;;;;;5.70;2.70;;;2.10;99.90;;;;;;4936106;29;20484;-82
2021/04/06 01:19:52;;;;;;;5.97;2.93;;;2.10;99.90;;;;;;4934906;29;20800;-81
2021/04/06 01:22:19;;;;;;;5.97;3.57;;;2.10;99.90;;;;;;4936067;29;20577;-82
2021/04/06 01:24:47;;;;;;;5.50;2.47;;;2.10;99.90;;;;;;4936006;29;20469;-82
2021/04/06 01:27:16;;;;;;;6.00;2.70;;;2.10;99.90;;;;;;4935876;29;20473;-81
2021/04/06 01:29:48;;;;;;;5.40;2.33;;;2.30;99.90;;;;;;4935984;29;20492;-82
2021/04/06 01:32:16;;;;;;;9.43;3.13;;;2.20;99.90;;;;;;4936162;29;20492;-82
2021/04/06 01:34:42;;;;;;;8.25;2.63;;;2.10;99.90;;;;;;4935900;29;20833;-82
2021/04/06 01:37:09;;;;;;;6.10;4.13;;;2.00;99.90;;;;;;4934485;29;20280;-82
2021/04/06 01:39:36;;;;;;;8.00;3.30;;;2.20;99.90;;;;;;4935715;29;20536;-82
2021/04/06 01:42:05;;;;;;;5.65;2.47;;;2.00;99.90;;;;;;4936038;29;20975;-82
2021/04/06 01:44:33;;;;;;;5.60;2.80;;;2.10;99.90;;;;;;4935849;29;20196;-82
2021/04/06 01:47:01;;;;;;;5.30;2.40;;;2.00;99.90;;;;;;4935669;29;21030;-81
2021/04/06 01:49:28;;;;;;;7.60;3.90;;;1.90;99.90;;;;;;4935701;29;20460;-82
2021/04/06 01:51:57;;;;;;;5.50;2.53;;;1.90;99.90;;;;;;4934548;29;20457;-82
2021/04/06 01:54:25;;;;;;;7.10;3.23;;;1.90;99.90;;;;;;4935705;29;20461;-82
2021/04/06 01:56:53;;;;;;;5.60;3.10;;;1.90;99.90;;;;;;4935619;29;20488;-82
2021/04/06 01:59:25;;;;;;;5.60;2.43;;;1.80;99.90;;;;;;4935559;29;20460;-82
2021/04/06 02:01:54;;;;;;;5.30;2.20;;;2.00;99.90;;;;;;4935735;29;20868;-82
2021/04/06 02:04:23;;;;;;;10.20;4.13;;;2.10;99.90;;;;;;4935723;29;20527;-82
2021/04/06 02:06:50;;;;;;;26.40;14.73;;;2.00;99.90;;;;;;4934181;29;20468;-82
2021/04/06 02:09:20;;;;;;;6.50;5.77;;;2.10;99.90;;;;;;4937221;29;20457;-82
2021/04/06 02:11:46;;;;;;;15.03;5.17;;;2.00;99.90;;;;;;4939793;29;20453;-82
2021/04/06 02:14:15;;;;;;;6.63;4.40;;;2.10;99.90;;;;;;4939492;29;20552;-82
2021/04/06 02:16:48;;;;;;;9.20;3.40;;;2.00;99.90;;;;;;4939266;29;20495;-82
2021/04/06 02:19:28;;;;;;;6.97;4.03;;;2.00;99.90;;;;;;4939132;29;20456;-82
2021/04/06 02:21:58;;;;;;;40.57;6.40;;;1.90;99.90;;;;;;4938200;29;20511;-82
2021/04/06 02:24:34;;;;;;;6.70;6.00;;;2.00;99.90;;;;;;4939342;29;20536;-82
2021/04/06 02:27:06;;;;;;;18.77;17.07;;;1.80;99.90;;;;;;4939162;29;20537;-82
2021/04/06 02:29:38;;;;;;;15.37;14.47;;;1.60;99.90;;;;;;4939064;29;20476;-82
2021/04/06 02:32:11;;;;;;;15.43;14.43;;;1.50;99.90;;;;;;4939118;29;20482;-82
2021/04/06 02:34:39;;;;;;;11.37;10.47;;;1.50;99.90;;;;;;4938905;29;20551;-80
2021/04/06 02:37:13;;;;;;;9.83;7.30;;;1.60;99.90;;;;;;4937443;29;20497;-82
2021/04/06 02:39:39;;;;;;;8.47;6.83;;;1.70;99.90;;;;;;4938924;29;20464;-82
2021/04/06 02:42:24;;;;;;;6.10;4.90;;;1.60;99.90;;;;;;4938871;29;20459;-82
2021/04/06 02:44:55;;;;;;;6.13;4.90;;;1.70;99.90;;;;;;4938882;29;20457;-82
2021/04/06 02:47:24;;;;;;;5.40;3.00;;;1.70;99.90;;;;;;4938812;29;20799;-82
2021/04/06 02:49:51;;;;;;;6.20;5.40;;;1.60;99.90;;;;;;4937600;29;20818;-82
2021/04/06 02:52:18;;;;;;;10.60;9.80;;;1.50;99.90;;;;;;4938725;29;20501;-81
2021/04/06 02:54:44;;;;;;;7.27;6.57;;;1.50;99.90;;;;;;4938513;29;20495;-81
2021/04/06 02:57:24;;;;;;;6.73;5.90;;;1.50;99.90;;;;;;4938566;29;20575;-81
2021/04/06 02:59:51;;;;;;;6.60;4.57;;;1.40;99.90;;;;;;4938494;29;20481;-81
2021/04/06 03:02:19;;;;;;;6.55;5.07;;;1.40;99.90;;;;;;4938716;29;20453;-82
2021/04/06 03:04:48;;;;;;;5.50;3.30;;;1.30;99.90;;;;;;4938079;29;20197;-82
2021/04/06 03:07:22;;;;;;;15.23;5.70;;;1.30;99.90;;;;;;4938153;29;20460;-82
2021/04/06 03:09:55;;;;;;;6.30;5.00;;;1.30;99.90;;;;;;4938414;29;20463;-82
2021/04/06 03:12:22;;;;;;;7.27;6.57;;;1.40;99.90;;;;;;4966228;23;20453;-81
2021/04/06 03:14:50;;;;;;;27.57;5.97;;;1.40;99.90;;;;;;4938342;29;20468;-81
2021/04/06 03:17:17;;;;;;;5.57;3.23;;;1.40;99.90;;;;;;4938205;29;20492;-80
2021/04/06 03:19:44;;;;;;;7.07;4.83;;;1.20;99.90;;;;;;4937645;29;20467;-80
2021/04/06 03:22:15;;;;;;;6.93;5.23;;;1.10;99.90;;;;;;4937555;29;20512;-80
2021/04/06 03:24:42;;;;;;;10.13;6.83;;;1.10;99.90;;;;;;4938101;29;20467;-80
2021/04/06 03:27:09;;;;;;;7.40;6.70;;;1.00;99.90;;;;;;4938089;29;20551;-80
2021/04/06 03:29:36;;;;;;;10.70;9.33;;;1.10;99.90;;;;;;4938074;29;20464;-80
2021/04/06 03:32:03;;;;;;;12.83;9.20;;;1.10;99.90;;;;;;4937999;29;20540;-80
2021/04/06 03:34:32;;;;;;;11.57;10.77;;;1.00;99.90;;;;;;4938129;29;20545;-80
2021/04/06 03:36:59;;;;;;;10.57;9.77;;;1.10;99.90;;;;;;4936648;29;20502;-80
2021/04/06 03:39:27;;;;;;;12.10;11.20;;;1.10;99.90;;;;;;4937951;29;20555;-80
2021/04/06 03:41:54;;;;;;;13.20;12.30;;;1.20;99.90;;;;;;4937899;29;20555;-80
2021/04/06 03:44:27;;;;;;;10.30;9.50;;;1.10;99.90;;;;;;4937807;29;20465;-80
2021/04/06 03:46:56;;;;;;;12.33;11.47;;;1.10;99.90;;;;;;4937714;29;20467;-79
2021/04/06 03:49:26;;;;;;;16.40;15.20;;;1.10;99.90;;;;;;4937764;29;20974;-80
2021/04/06 03:51:54;;;;;;;13.63;12.73;;;1.20;99.90;;;;;;4936493;29;20484;-79
2021/04/06 03:54:37;;;;;;;20.40;19.10;;;1.20;99.90;;;;;;4937584;29;20197;-79
2021/04/06 03:57:22;;;;;;;16.60;15.60;;;1.20;99.90;;;;;;4937466;29;20587;-79
2021/04/06 03:59:48;;;;;;;13.30;12.40;;;1.10;99.90;;;;;;4937551;29;20563;-79
2021/04/06 04:02:15;;;;;;;13.53;12.63;;;1.10;99.90;;;;;;4937555;29;20544;-79
2021/04/06 04:04:41;;;;;;;12.23;11.32;;;1.20;99.90;;;;;;4937581;29;20593;-79
2021/04/06 04:07:08;;;;;;;13.50;12.60;;;1.10;99.90;;;;;;4936530;29;20205;-79
2021/04/06 04:09:35;;;;;;;16.27;15.17;;;1.00;99.90;;;;;;4937183;29;20456;-79
2021/04/06 04:12:01;;;;;;;17.90;16.90;;;1.10;99.90;;;;;;4937259;29;20548;-79
2021/04/06 04:14:28;;;;;;;16.20;15.20;;;0.90;99.90;;;;;;4937228;29;20867;-80
2021/04/06 04:16:54;;;;;;;18.00;17.00;;;1.00;99.90;;;;;;4937206;29;20528;-80
2021/04/06 04:19:21;;;;;;;28.38;26.42;;;1.00;99.90;;;;;;4937149;29;20465;-80
2021/04/06 04:21:47;;;;;;;27.33;25.92;;;1.00;99.90;;;;;;4935894;29;20544;-80
2021/04/06 04:24:14;;;;;;;25.30;23.60;;;0.90;99.90;;;;;;4937037;29;20370;-80
2021/04/06 04:26:41;;;;;;;31.52;29.65;;;0.90;99.90;;;;;;4936799;29;20523;-79
2021/04/06 04:29:07;;;;;;;26.13;24.73;;;0.80;99.90;;;;;;4936968;29;20201;-80
2021/04/06 04:31:34;;;;;;;22.65;21.45;;;0.80;99.90;;;;;;4936253;29;20973;-81
2021/04/06 04:34:00;;;;;;;17.93;16.93;;;0.90;99.90;;;;;;4936975;29;20201;-81
2021/04/06 04:36:26;;;;;;;20.10;18.90;;;0.90;99.90;;;;;;4935536;29;20528;-81
2021/04/06 04:38:53;;;;;;;18.27;16.70;;;0.90;99.90;;;;;;4936617;29;20547;-80
2021/04/06 04:41:19;;;;;;;15.10;14.00;;;0.80;99.90;;;;;;4936702;29;20509;-81
2021/04/06 04:43:47;;;;;;;17.88;16.67;;;0.80;99.90;;;;;;4936767;29;20602;-81
2021/04/06 04:46:13;;;;;;;22.13;20.93;;;0.90;99.90;;;;;;4936757;29;20208;-81
2021/04/06 04:48:41;;;;;;;16.77;15.67;;;0.70;99.90;;;;;;4936674;29;20460;-81
2021/04/06 04:51:07;;;;;;;11.65;10.85;;;0.90;99.90;;;;;;4935308;29;20600;-80
2021/04/06 04:53:33;;;;;;;14.45;13.55;;;0.80;99.90;;;;;;4936432;29;20201;-81
2021/04/06 04:56:00;;;;;;;11.23;10.43;;;0.80;99.90;;;;;;4936522;29;20582;-81
2021/04/06 04:58:26;;;;;;;10.43;9.70;;;0.90;99.90;;;;;;4936639;29;20209;-80
2021/04/06 05:00:53;;;;;;;9.90;9.20;;;0.90;99.90;;;;;;4936374;29;20300;-80
2021/04/06 05:03:20;;;;;;;14.00;12.68;;;1.00;99.90;;;;;;4936440;29;20551;-80
2021/04/06 05:05:46;;;;;;;9.85;9.05;;;1.00;99.90;;;;;;4935195;29;20196;-81
2021/04/06 05:08:13;;;;;;;11.65;10.65;;;1.20;99.90;;;;;;4936209;29;20361;-81
2021/04/06 05:10:39;;;;;;;17.83;9.27;;;1.10;99.90;;;;;;4936249;29;20197;-81
2021/04/06 05:13:05;;;;;;;15.40;10.30;;;1.10;99.90;;;;;;4938175;29;21008;-81
2021/04/06 05:15:33;;;;;;;10.70;9.77;;;1.00;99.90;;;;;;4936320;29;20941;-81
2021/04/06 05:18:00;;;;;;;12.87;11.50;;;1.00;99.90;;;;;;4936467;29;20805;-79
2021/04/06 05:20:26;;;;;;;21.27;11.90;;;1.00;99.90;;;;;;4934999;29;20504;-80
2021/04/06 05:22:53;;;;;;;11.43;10.53;;;1.00;99.90;;;;;;4936049;29;20453;-81
2021/04/06 05:25:19;;;;;;;9.50;8.80;;;1.10;99.90;;;;;;4936013;29;20488;-81
2021/04/06 05:27:46;;;;;;;7.80;7.10;;;1.00;99.90;;;;;;4935882;29;20972;-80
2021/04/06 05:30:12;;;;;;;6.80;6.17;;;1.00;99.90;;;;;;4936197;29;20460;-80
2021/04/06 05:32:39;;;;;;;12.43;5.55;;;1.00;99.90;;;;;;4935967;29;20495;-80
2021/04/06 05:35:07;;;;;;;5.90;4.90;;;1.00;99.90;;;;;;4935023;29;20273;-80
2021/04/06 05:37:34;;;;;;;6.40;5.80;;;1.10;99.90;;;;;;4935718;29;20547;-80
2021/04/06 05:40:00;;;;;;;7.00;6.40;;;1.10;99.90;;;;;;4935822;29;20909;-80
2021/04/06 05:42:27;;;;;;;6.03;5.43;;;1.20;99.90;;;;;;4935836;29;20544;-80
2021/04/06 05:44:54;;;;;;;6.07;5.07;;;1.20;99.90;;;;;;4935902;29;20516;-81
2021/04/06 05:47:24;;;;;;;6.23;5.00;;;1.30;99.90;;;;;;4935735;29;20457;-79
2021/04/06 05:49:51;;;;;;;6.20;5.07;;;1.30;99.90;;;;;;4934454;29;20483;-80
2021/04/06 05:52:18;;;;;;;9.65;5.55;;;1.40;99.90;;;;;;4935715;29;20461;-80
2021/04/06 05:54:45;;;;;;;5.87;4.87;;;1.40;99.90;;;;;;4935785;29;20235;-80
2021/04/06 05:57:11;;;;;;;6.72;4.85;;;1.50;99.90;;;;;;4935692;29;20543;-81
2021/04/06 05:59:38;;;;;;;6.07;5.37;;;1.50;99.90;;;;;;4935576;29;20220;-80
2021/04/06 06:02:04;;;;;;;9.73;6.30;;;1.50;99.90;;;;;;4935763;29;20465;-80
2021/04/06 06:04:31;;;;;;;6.10;5.25;;;1.60;99.90;;;;;;4935699;29;21011;-79
2021/04/06 06:06:57;;;;;;;5.90;4.60;;;1.50;99.90;;;;;;4934450;29;20205;-80
2021/04/06 06:09:35;;;;;;;7.43;6.73;;;1.50;99.90;;;;;;4935586;29;20457;-80
2021/04/06 06:12:03;;;;;;;9.70;6.80;;;1.50;99.90;;;;;;4935467;29;20505;-79
2021/04/06 06:14:31;;;;;;;6.97;6.23;;;1.60;99.90;;;;;;4935309;29;20491;-80
2021/04/06 06:17:11;;;;;;;6.90;6.20;;;1.50;99.90;;;;;;4935310;29;20480;-82
2021/04/06 06:19:39;;;;;;;6.33;5.63;;;1.60;99.90;;;;;;4935518;29;20464;-83
2021/04/06 06:22:21;;;;;;;12.50;11.30;;;1.70;99.90;;;;;;4934736;29;20825;-83
2021/04/06 06:25:30;;;;;;;;;;;;;;;;;;;;;
2021/04/06 06:28:14;;;;;;;15.00;6.20;;;1.70;99.90;;;;;;4934100;29;20574;-85
2021/04/06 06:34:00;;;;;;;6.77;6.07;;;1.80;99.90;;;;;;4839508;29;20459;-84
2021/04/06 06:37:03;;;;;;;8.67;6.47;;;1.80;99.90;;;;;;4875836;29;20491;-86
2021/04/06 06:39:32;;;;;;;7.73;6.93;;;1.80;99.90;;;;;;4933282;29;20814;-83
2021/04/06 06:42:01;;;;;;;8.73;7.93;;;1.90;99.90;;;;;;4935192;29;20453;-83
2021/04/06 06:44:56;;;;;;;9.97;8.97;;;2.10;99.90;;;;;;4935328;29;21015;-84
2021/04/06 06:47:24;;;;;;;6.60;5.90;;;2.30;99.90;;;;;;4914492;29;20827;-82
2021/04/06 06:49:58;;;;;;;9.77;7.33;;;2.60;99.90;;;;;;4914151;29;20473;-81
2021/04/06 06:52:30;;;;;;;8.13;6.67;;;2.40;99.90;;;;;;4914929;29;20468;-80
2021/04/06 06:55:00;;;;;;;7.00;6.27;;;2.40;99.90;;;;;;4915933;29;20877;-82
2021/04/06 06:57:30;;;;;;;6.73;5.83;;;2.30;99.90;;;;;;4918269;29;20497;-82
2021/04/06 07:00:06;;;;;;;9.73;7.10;;;2.40;99.90;;;;;;4918378;29;20570;-81
2021/04/06 07:02:39;;;;;;;6.37;5.60;;;2.40;99.90;;;;;;4918476;29;20900;-82
2021/04/06 07:05:20;;;;;;;9.23;6.50;;;2.70;99.90;;;;;;4917229;29;20957;-83
2021/04/06 07:08:09;;;;;;;7.33;5.60;;;2.80;99.90;;;;;;4934982;29;20472;-83
2021/04/06 07:10:41;;;;;;;7.70;5.40;;;2.90;99.90;;;;;;4937544;29;20508;-82
2021/04/06 07:13:19;;;;;;;10.53;5.33;;;3.00;99.90;;;;;;4923816;29;20481;-82
2021/04/06 07:15:51;;;;;;;8.17;4.00;;;2.90;99.90;;;;;;4918168;29;20462;-82
2021/04/06 07:18:24;;;;;;;7.70;5.13;;;3.10;99.90;;;;;;4918053;29;20504;-81
2021/04/06 07:20:55;;;;;;;5.97;3.67;;;3.20;99.90;;;;;;4917036;29;20493;-82
2021/04/06 07:23:37;;;;;;;10.60;4.33;;;3.50;99.90;;;;;;4917794;29;20461;-82
2021/04/06 07:26:05;;;;;;;6.10;2.77;;;3.50;99.90;;;;;;4917747;29;20473;-81
2021/04/06 07:28:37;;;;;;;6.80;3.83;;;3.50;99.90;;;;;;4917981;29;20468;-82
2021/04/06 07:31:06;;;;;;;6.50;3.03;;;3.60;99.90;;;;;;4917752;29;20465;-82
2021/04/06 07:33:39;;;;;;;5.80;2.77;;;3.50;99.90;;;;;;4918334;29;20457;-82
2021/04/06 07:36:12;;;;;;;6.00;2.70;;;3.30;99.90;;;;;;4916968;29;20489;-84
2021/04/06 07:38:43;;;;;;;6.10;3.30;;;3.20;99.90;;;;;;4918432;29;21032;-82
2021/04/06 07:41:16;;;;;;;6.00;3.30;;;3.10;99.90;;;;;;4918672;29;20564;-83
2021/04/06 07:43:58;;;;;;;5.97;2.80;;;3.20;99.90;;;;;;4918050;29;20457;-83
2021/04/06 07:46:47;;;;;;;10.70;2.70;;;3.30;99.90;;;;;;4917815;29;20466;-83
2021/04/06 07:49:36;;;;;;;6.80;3.97;;;3.20;99.90;;;;;;4917682;29;20462;-82
2021/04/06 07:52:15;;;;;;;5.80;1.80;;;3.30;99.90;;;;;;4917631;29;21013;-83
2021/04/06 07:55:04;;;;;;;5.63;2.47;;;3.30;99.90;;;;;;4918704;29;20458;-83
2021/04/06 07:57:51;;;;;;;6.30;2.07;;;3.60;99.90;;;;;;4918357;29;20501;-82
2021/04/06 08:00:51;;;;;;;6.30;2.13;;;3.60;99.90;;;;;;4918182;29;20462;-81
2021/04/06 08:03:51;;;;;;;10.20;2.10;;;3.70;99.90;;;;;;4917343;29;20828;-82
2021/04/06 08:06:18;;;;;;;7.80;2.03;;;3.80;99.90;;;;;;4916251;29;20534;-82
2021/04/06 08:08:44;;;;;;;8.10;1.73;;;4.10;99.90;;;;;;4918658;29;20811;-82
2021/04/06 08:11:22;;;;;;;;;;;;;;;;;;;;;
2021/04/06 08:14:02;;;;;;;;;;;;;;;;;;;;;
2021/04/06 08:16:39;;;;;;;8.53;2.10;;;4.30;88.30;;;;;;4912556;29;20485;-82
2021/04/06 08:19:06;;;;;;;5.80;1.33;;;4.30;97.50;;;;;;4918196;29;20458;-83
2021/04/06 08:21:33;;;;;;;6.00;1.97;;;4.10;82.80;;;;;;4916971;29;20539;-82
2021/04/06 08:24:24;;;;;;;6.93;1.83;;;4.00;78.80;;;;;;4918138;29;20497;-82
2021/04/06 08:26:56;;;;;;;11.23;1.87;;;3.90;79.20;;;;;;4918346;29;20453;-82
2021/04/06 08:29:33;;;;;;;6.17;2.10;;;3.90;74.80;;;;;;4917982;29;20520;-82
2021/04/06 08:32:12;;;;;;;7.90;2.43;;;3.90;79.80;;;;;;4918111;29;20446;-82
2021/04/06 08:34:49;;;;;;;7.73;1.43;;;4.40;92.90;;;;;;4919362;29;20457;-82
2021/04/06 08:37:21;;;;;;;7.70;2.17;;;4.60;92.40;;;;;;4917918;29;20493;-82
2021/04/06 08:39:49;;;;;;;5.80;1.37;;;4.80;84.30;;;;;;4918024;29;20526;-81
2021/04/06 08:42:17;;;;;;;16.30;2.17;;;4.30;60.80;;;;;;4917904;29;20466;-81
2021/04/06 08:44:49;;;;;;;6.47;2.17;;;4.30;61.90;;;;;;4917794;29;20458;-81
2021/04/06 08:47:42;;;;;;;7.07;1.33;;;4.70;62.30;;;;;;4917634;29;20809;-81
2021/04/06 08:50:11;;;;;;;7.43;1.90;;;4.90;57.70;;;;;;4916340;29;20485;-83
2021/04/06 08:52:41;;;;;;;6.10;1.40;;;4.90;59.50;;;;;;4917747;29;20466;-83
2021/04/06 08:55:10;;;;;;;6.70;2.40;;;4.60;53.90;;;;;;4917557;29;20470;-83
2021/04/06 08:57:36;;;;;;;10.70;3.53;;;4.50;58.30;;;;;;4917256;29;20908;-83
2021/04/06 09:00:23;;;;;;;6.17;1.50;;;5.00;57.70;;;;;;4917576;29;20553;-84
2021/04/06 09:03:17;;;;;;;;;;;;;;;;;;;;;
2021/04/06 09:05:43;;;;;;;8.40;2.43;;;4.10;54.10;;;;;;4916369;29;20484;-84
2021/04/06 09:08:18;;;;;;;6.20;1.77;;;4.10;63.00;;;;;;4917200;29;20516;-84
2021/04/06 09:10:45;;;;;;;6.30;1.83;;;4.40;75.50;;;;;;4917236;29;20477;-84
2021/04/06 09:13:11;;;;;;;5.73;1.40;;;4.50;50.90;;;;;;4916966;29;20489;-84
2021/04/06 09:15:38;;;;;;;6.37;1.97;;;4.90;49.00;;;;;;4917488;29;20825;-84
2021/04/06 09:18:11;;;;;;;7.23;2.03;;;5.50;45.30;;;;;;4916939;29;20499;-84
2021/04/06 09:20:38;;;;;;;6.50;1.47;;;5.70;34.70;;;;;;4915993;29;20474;-84
2021/04/06 09:23:10;;;;;;;7.70;2.30;;;6.10;32.70;;;;;;4917133;29;20467;-84
2021/04/06 09:25:37;;;;;;;6.53;1.10;;;6.60;29.50;;;;;;4915209;29;20625;-83
2021/04/06 09:28:42;;;;;;;9.10;1.95;;;7.10;18.40;;;;;;4917076;29;20471;-82
2021/04/06 09:38:22;;;;;;;;;;;;;;;;;;;;;
2021/04/06 09:41:03;;;;;;;;;;;;;;;;;;;;;
2021/04/06 09:44:20;;;;;;;;;;;;;;;;;;;;;
2021/04/06 09:47:09;;;;;;;8.53;1.60;;;7.40;15.00;;;;;;4773731;29;20492;-83
2021/04/06 09:49:52;;;;;;;9.70;1.90;;;6.90;14.60;;;;;;4877205;29;20456;-83
2021/04/06 09:52:44;;;;;;;8.83;2.13;;;6.30;16.80;;;;;;4877045;29;20522;-83
2021/04/06 09:55:47;;;;;;;7.37;1.37;;;6.60;19.00;;;;;;4906560;29;20469;-83
2021/04/06 10:04:54;;;;;;;;;;;;;;;;;;;;;
2021/04/06 10:07:24;;;;;;;12.73;1.70;;;6.80;20.30;;;;;;4916831;29;20237;-82
2021/04/06 10:09:55;;;;;;;11.83;2.20;;;6.70;16.20;;;;;;4916692;29;20460;-83
2021/04/06 10:12:24;;;;;;;9.35;1.58;;;5.70;23.30;;;;;;4915729;29;20561;-81
2021/04/06 10:14:54;;;;;;;7.80;1.70;;;3.50;95.40;;;;;;4915585;29;20557;-82
2021/04/06 10:17:22;;;;;;;9.33;3.33;;;2.40;99.90;;;;;;4915493;29;20565;-81
2021/04/06 10:19:58;;;;;;;12.93;6.30;;;2.90;99.90;;;;;;4915191;29;20832;-81
2021/04/06 10:22:25;;;;;;;7.30;3.73;;;3.80;99.90;;;;;;4916284;29;20469;-80
2021/04/06 10:24:55;;;;;;;6.63;2.10;;;4.60;99.90;;;;;;4916300;29;20497;-80
2021/04/06 10:27:27;;;;;;;7.93;1.90;;;5.00;99.90;;;;;;4916156;29;20457;-82
2021/04/06 10:29:56;;;;;;;6.60;1.40;;;5.50;99.90;;;;;;4917437;29;20467;-82
2021/04/06 10:32:30;;;;;;;7.63;1.77;;;5.70;99.90;;;;;;4920029;29;20983;-82
2021/04/06 10:35:00;;;;;;;9.93;2.33;;;6.20;99.90;;;;;;4918990;29;20484;-82
2021/04/06 10:37:43;;;;;;;9.30;1.60;;;6.70;97.70;;;;;;4919875;29;20497;-82
2021/04/06 10:40:32;;;;;;;7.80;1.40;;;7.00;90.40;;;;;;4919976;29;20818;-82
2021/04/06 10:43:10;;;;;;;7.57;1.30;;;7.80;61.90;;;;;;4917407;29;20480;-83
2021/04/06 10:45:41;;;;;;;8.37;1.60;;;7.60;28.70;;;;;;4919144;29;20485;-82
2021/04/06 10:48:12;;;;;;;10.67;1.73;;;7.00;29.30;;;;;;4937506;29;20449;-83
2021/04/06 10:50:50;;;;;;;8.50;2.00;;;6.50;34.80;;;;;;4936517;29;20468;-83
2021/04/06 10:53:27;;;;;;;8.40;1.90;;;6.60;32.40;;;;;;4937671;29;20466;-82
2021/04/06 10:56:49;;;;;;;8.83;2.67;;;7.10;29.10;;;;;;4937267;29;20498;-83
2021/04/06 11:16:21;;;;;;;6.83;2.13;;;3.40;80.70;;;;;;4684810;30;20463;-83
2021/04/06 11:19:05;;;;;;;6.00;1.40;;;3.50;99.70;;;;;;4713784;30;20899;-82
2021/04/06 11:21:34;;;;;;;5.60;1.10;;;3.40;99.90;;;;;;4819475;29;20955;-81
2021/04/06 11:24:23;;;;;;;5.53;1.27;;;2.20;99.90;;;;;;4895628;29;20458;-81
2021/04/06 11:26:51;;;;;;;5.97;1.77;;;2.00;99.90;;;;;;4895666;29;20465;-81
2021/04/06 11:29:34;;;;;;;5.53;1.43;;;2.00;99.90;;;;;;4895773;29;20849;-82
2021/04/06 11:32:19;;;;;;;5.40;1.90;;;1.90;99.90;;;;;;4894476;29;20998;-83
2021/04/06 11:38:17;;;;;;;51.10;48.70;;;0.80;99.90;;;;;;4906953;29;20493;-82
2021/04/06 11:40:46;;;;;;;62.30;59.40;;;0.60;99.90;;;;;;4935735;29;20456;-81
2021/04/06 11:43:22;;;;;;;66.50;63.50;;;0.60;99.90;;;;;;4935512;29;20496;-83
2021/04/06 11:46:03;;;;;;;70.03;66.82;;;0.50;99.90;;;;;;4935656;29;20479;-84
2021/04/06 11:48:31;;;;;;;114.90;109.93;;;0.60;99.90;;;;;;4935142;29;20244;-84
2021/04/06 11:50:58;;;;;;;97.57;93.17;;;0.70;99.90;;;;;;4933788;29;21035;-82
2021/04/06 11:53:27;;;;;;;118.63;113.40;;;0.60;99.90;;;;;;4925599;29;20464;-83
2021/04/06 11:56:12;;;;;;;94.17;90.03;;;0.60;99.90;;;;;;4923675;29;20465;-82
2021/04/06 11:58:48;;;;;;;113.57;108.57;;;0.70;99.90;;;;;;4925646;29;20508;-83
2021/04/06 12:07:18;;;;;;;86.53;82.67;;;1.80;99.90;;;;;;4744760;29;20524;-84
2021/04/06 12:09:50;;;;;;;95.77;91.50;;;2.90;99.90;;;;;;4884861;29;20502;-84
2021/04/06 12:12:18;;;;;;;74.50;71.10;;;3.80;99.90;;;;;;4882757;29;20607;-84
2021/04/06 12:15:18;;;;;;;;;;;;;;;;;;;;;
2021/04/06 12:18:20;;;;;;;88.53;84.23;;;4.70;99.90;;;;;;4925209;29;20544;-84
2021/04/06 12:21:04;;;;;;;71.00;67.40;;;5.60;99.90;;;;;;4866587;29;20469;-84
2021/04/06 12:23:43;;;;;;;50.43;47.93;;;6.20;99.90;;;;;;4921475;29;20463;-84
2021/04/06 12:29:49;;;;;;;29.70;27.70;;;6.00;99.90;;;;;;4913195;29;20541;-86
2021/04/06 12:33:04;;;;;;;;;;;;;;;;;;;;;
2021/04/06 12:35:56;;;;;;;30.90;29.20;;;5.00;99.90;;;;;;4916652;29;20491;-84
2021/04/06 12:39:12;;;;;;;24.77;23.27;;;5.10;99.90;;;;;;4915526;29;20571;-83
2021/04/06 12:42:14;;;;;;;;;;;;;;;;;;;;;
2021/04/06 12:45:06;;;;;;;20.70;19.40;;;4.30;99.90;;;;;;4885012;29;20560;-84
2021/04/06 12:47:39;;;;;;;11.60;8.50;;;4.20;99.90;;;;;;4917550;29;20461;-82
2021/04/06 12:50:14;;;;;;;11.30;10.20;;;4.00;99.90;;;;;;4929594;29;20480;-82
2021/04/06 12:52:52;;;;;;;6.33;3.30;;;4.70;99.90;;;;;;4933813;29;20457;-81
2021/04/06 12:55:21;;;;;;;6.77;4.37;;;4.90;99.90;;;;;;4935497;29;20459;-81
2021/04/06 12:57:53;;;;;;;8.63;7.23;;;5.50;99.90;;;;;;4935180;29;20504;-81
2021/04/06 13:00:39;;;;;;;7.10;4.60;;;5.70;99.90;;;;;;4935115;29;20458;-81
2021/04/06 13:03:14;;;;;;;6.37;2.83;;;5.00;99.90;;;;;;4935475;29;20517;-81
2021/04/06 13:05:42;;;;;;;6.30;1.93;;;4.40;98.60;;;;;;4934089;29;20967;-83
2021/04/06 13:08:17;;;;;;;6.60;1.57;;;4.00;99.90;;;;;;5037833;23;21401;-85
2021/04/06 13:10:45;;;;;;;7.37;2.10;;;3.60;99.90;;;;;;4936443;29;20462;-84
2021/04/06 13:13:16;;;;;;;6.20;1.20;;;3.50;87.20;;;;;;4936322;29;20543;-85
2021/04/06 13:16:11;;;;;;;6.70;2.00;;;3.40;84.40;;;;;;4936236;29;20528;-84
2021/04/06 13:19:25;;;;;;;;;;;;;;;;;;;;;
2021/04/06 13:25:23;;;;;;;6.80;1.57;;;3.80;99.90;;;;;;4936196;29;20470;-84
2021/04/06 13:31:21;;;;;;;7.80;4.60;;;4.10;95.80;;;;;;4934883;29;20469;-84
2021/04/06 13:34:23;;;;;;;6.20;1.47;;;5.00;97.80;;;;;;4914536;29;20487;-84
2021/04/06 13:40:04;;;;;;;8.63;1.87;;;5.30;63.10;;;;;;4822660;29;20474;-84
2021/04/06 13:42:34;;;;;;;6.90;2.33;;;4.60;70.20;;;;;;4865145;29;20525;-83
2021/04/06 13:45:00;;;;;;;6.00;1.90;;;3.10;99.90;;;;;;4919456;29;20477;-84
2021/04/06 13:47:27;;;;;;;6.70;4.60;;;2.40;99.90;;;;;;4935786;29;20897;-83
2021/04/06 13:49:54;;;;;;;6.67;5.37;;;2.50;99.90;;;;;;4934962;29;20461;-82
2021/04/06 13:52:23;;;;;;;7.27;6.57;;;2.60;99.90;;;;;;4935817;29;20552;-83
2021/04/06 13:54:49;;;;;;;18.30;4.77;;;2.50;99.90;;;;;;4935674;29;20465;-83
2021/04/06 13:57:16;;;;;;;6.33;5.00;;;2.60;99.90;;;;;;4935696;29;20499;-84
2021/04/06 13:59:54;;;;;;;6.73;6.03;;;2.80;99.90;;;;;;4935779;29;20469;-84
2021/04/06 14:02:29;;;;;;;5.97;2.77;;;3.20;99.90;;;;;;4935465;29;20523;-85
2021/04/06 14:05:25;;;;;;;5.50;1.60;;;3.90;99.90;;;;;;4918113;29;20452;-85
2021/04/06 14:08:20;;;;;;;5.47;1.20;;;4.70;99.90;;;;;;4939533;29;20484;-85
2021/04/06 14:10:55;;;;;;;6.77;1.10;;;5.40;99.90;;;;;;4939576;29;20888;-85
2021/04/06 14:30:33;;;;;;;6.20;1.17;;;5.50;46.10;;;;;;4734973;30;21073;-85
2021/04/06 14:33:35;;;;;;;8.87;1.83;;;5.20;53.10;;;;;;4789076;29;20486;-86
2021/04/06 14:43:26;;;;;;;5.67;0.83;;;5.50;51.00;;;;;;4829311;29;20510;-86
2021/04/06 14:52:54;;;;;;;8.57;1.30;;;5.70;41.20;;;;;;4775639;29;20466;-86
2021/04/06 14:58:18;;;;;;;6.00;1.10;;;4.60;60.00;;;;;;4842546;29;20521;-83
2021/04/06 15:00:44;;;;;;;5.93;0.97;;;3.70;90.30;;;;;;4938569;29;20482;-84
2021/04/06 15:03:14;;;;;;;8.30;1.65;;;2.20;99.90;;;;;;4936853;29;20975;-82
2021/04/06 15:05:40;;;;;;;6.77;4.37;;;1.20;99.90;;;;;;4936793;29;20201;-82
2021/04/06 15:08:07;;;;;;;6.13;3.50;;;1.10;99.90;;;;;;4937645;29;20484;-82